Sunday, August 19, 2018, 1:51 PM EDT
Back to Local

KCXY, Harrisburg Capital City

Location: New Cumberland, PA, United States Lat: 40.217
Local Time: 1:51 PM EDT (17:51 GMT) Lon: -76.85
Time Zone: US/Eastern Elev: 347 ft

Show me the last for .
Show Decoded

2018-08-19 12:56 METAR KCXY 191656Z 09006KT 1 3/4SM R08/5500VP6000FT -RA BKN007 OVC012 22/19
                 A2999 RMK AO2 RAB00 CIG 004V009 SLP154 P0003 T02220194 =
2018-08-19 12:53 METAR KCXY 191653Z 10007KT 1 3/4SM R08/5500VP6000FT -RA BKN007 OVC012 22/19
                 A2999 RMK AO2 RAB00 P0003 =
2018-08-19 12:17 METAR KCXY 191617Z 11007KT 2 1/2SM -RA FEW008 OVC015 22/19 A2999 RMK AO2 RAB00
                 P0001 T02220189 =
2018-08-19 12:12 METAR KCXY 191612Z 11006KT 2 1/2SM -RA OVC015 22/19 A2999 RMK AO2 RAB00 P0000
                 T02220189 =
2018-08-19 11:56 METAR KCXY 191556Z 10006KT 10SM OVC013 23/18 A2998 RMK AO2 SLP152 T02280183 =
2018-08-19 10:56 METAR KCXY 191456Z 33005KT 10SM OVC015 23/19 A2997 RMK AO2 SLP149 60000
                 T02280189 51007 =
2018-08-19 09:56 METAR KCXY 191356Z 34005KT 10SM SCT008 OVC019 22/18 A2997 RMK AO2 SLP148
                 T02220183 =
2018-08-19 09:04 METAR KCXY 191304Z 04003KT 4SM HZ BKN010 BKN014 OVC019 22/18 A2996 RMK AO2
                 T02170183 =
2018-08-19 08:56 METAR KCXY 191256Z COR 03004KT 4SM HZ BKN010 BKN014 OVC019 22/18 A2996 RMK AO2
                 RAB02E26 CIG 007V011 SLP145 P0000 T02170183 =
2018-08-19 07:56 METAR KCXY 191156Z 34004KT 3SM HZ SCT010 OVC019 21/18 A2995 RMK AO2 RAE44 SLP141
                 P0001 60011 70012 T02110183 10211 20206 52018 =
2018-08-19 06:56 METAR KCXY 191056Z 34003KT 2SM -RA BR BKN004 BKN019 OVC029 21/18 A2994 RMK AO2
                 RAB01 SLP135 P0003 T02060183 =
2018-08-19 06:42 METAR KCXY 191042Z AUTO 35004KT 3SM -RA BR SCT005 BKN014 OVC028 21/18 A2993 RMK
                 AO2 RAB01 P0003 T02060183 =
2018-08-19 06:33 METAR KCXY 191033Z AUTO 00000KT 3SM -RA BR SCT005 BKN020 OVC030 21/18 A2993 RMK
                 AO2 RAB01 P0002 T02060183 =
2018-08-19 06:25 METAR KCXY 191025Z AUTO 36004KT 2 1/2SM -RA BR SCT006 BKN013 OVC027 21/18 A2992
                 RMK AO2 RAB01 P0002 T02060183 =
2018-08-19 06:06 METAR KCXY 191006Z AUTO 35004KT 7SM -RA BKN006 BKN018 OVC025 21/18 A2992 RMK AO2
                 RAB01 P0000 T02110183 =
2018-08-19 05:56 METAR KCXY 190956Z AUTO 00000KT 10SM SCT007 BKN018 OVC025 21/18 A2991 RMK AO2
                 SLP128 T02110183 =
2018-08-19 05:43 METAR KCXY 190943Z AUTO 00000KT 10SM FEW006 OVC026 21/18 A2991 RMK AO2 T02110183
                 =
2018-08-19 04:56 METAR KCXY 190856Z AUTO 35003KT 10SM OVC025 21/18 A2990 RMK AO2 SLP122 60007
                 T02110183 51003 =
2018-08-19 03:56 METAR KCXY 190756Z AUTO 34003KT 10SM OVC025 21/18 A2989 RMK AO2 RAE17 SLP121
                 P0001 T02110183 =
2018-08-19 02:56 METAR KCXY 190656Z AUTO 33004KT 3SM -RA SCT006 BKN019 OVC025 21/18 A2989 RMK AO2
                 SLP121 P0006 T02110183 =
2018-08-19 02:44 METAR KCXY 190644Z AUTO 33005KT 2 1/2SM RA BR SCT008 BKN017 OVC029 21/18 A2989
                 RMK AO2 P0005 T02060183 =
2018-08-19 02:34 METAR KCXY 190634Z AUTO 32006KT 3SM RA SCT009 BKN020 OVC029 21/18 A2989 RMK AO2
                 P0003 T02110183 =
2018-08-19 02:21 METAR KCXY 190621Z AUTO VRB04KT 7SM -RA FEW011 BKN021 OVC044 22/18 A2989 RMK AO2
                 P0001 T02170183 =
2018-08-19 01:56 METAR KCXY 190556Z AUTO 34003KT 10SM -RA OVC046 22/18 A2989 RMK AO2 RAB00 SLP119
                 P0000 60001 T02170183 10267 20211 51001 =
2018-08-19 00:56 METAR KCXY 190456Z AUTO 30003KT 10SM SCT042 OVC050 22/18 A2989 RMK AO2 SLP119
                 T02220183 403060222 =
2018-08-18 23:56 METAR KCXY 190356Z AUTO 34007KT 10SM SCT028 OVC043 23/18 A2989 RMK AO2 SLP118
                 T02280178 =
2018-08-18 23:47 METAR KCXY 190347Z AUTO 36005KT 10SM BKN028 OVC043 23/18 A2988 RMK AO2 T02280178
                 =
2018-08-18 22:56 METAR KCXY 190256Z AUTO 36007KT 10SM OVC044 24/18 A2989 RMK AO2 SLP118 60001
                 T02390183 51016 =
2018-08-18 21:56 METAR KCXY 190156Z AUTO 36006KT 10SM FEW023 BKN036 OVC050 24/20 A2988 RMK AO2
                 RAE35 SLP117 P0001 T02440200 =
2018-08-18 21:17 METAR KCXY 190117Z AUTO 34006KT 10SM -RA SCT022 SCT031 OVC043 25/21 A2987 RMK
                 AO2 P0000 T02500206 =
2018-08-18 20:56 METAR KCXY 190056Z 34006KT 10SM -RA BKN023 BKN028 OVC044 26/20 A2986 RMK AO2
                 RAB51 SLP109 P0000 T02610200 =
2018-08-18 19:56 METAR KCXY 182356Z 04005KT 10SM SCT035 BKN090 27/19 A2984 RMK AO2 SLP101
                 T02670194 10300 20267 51012 =
2018-08-18 19:14 METAR KCXY 182314Z 05005KT 10SM SCT025 BKN030 28/20 A2983 RMK AO2 T02780200 =
2018-08-18 18:56 METAR KCXY 182256Z COR 35005KT 10SM SCT026 BKN085 28/20 A2983 RMK AO2 SLP098
                 T02780200 =
2018-08-18 18:47 METAR KCXY 182247Z 33006KT 10SM BKN024 OVC085 28/21 A2982 RMK AO2 T02780206 =
2018-08-18 17:56 METAR KCXY 182156Z 25005KT 10SM FEW070 SCT080 28/21 A2981 RMK AO2 SLP093
                 T02830211 =
2018-08-18 16:56 METAR KCXY 182056Z 23006KT 10SM CLR 28/21 A2980 RMK AO2 SLP089 T02830206 58014 =
2018-08-18 15:56 METAR KCXY 181956Z 25009KT 10SM CLR 28/20 A2982 RMK AO2 SLP096 T02830200 =
2018-08-18 14:56 METAR KCXY 181856Z 25008KT 10SM FEW045 SCT100 29/21 A2982 RMK AO2 LTG DSNT SE
                 SLP098 T02940206 =
2018-08-18 13:56 METAR KCXY 181756Z 27011G15KT 10SM FEW042 BKN095 30/21 A2984 RMK AO2 SLP103
                 T03000206 10306 20239 56016 =

Support USWX by starting your Amazon purchase here.